createdAt,value
2019-02-15T00:02:17.578Z,60.19
2019-02-15T00:06:22.556Z,60.51
2019-02-15T00:10:27.443Z,60.68
2019-02-15T00:14:35.392Z,60.87
2019-02-15T00:18:54.092Z,61.29
2019-02-15T00:22:58.993Z,61.40
2019-02-15T00:27:03.899Z,61.14
2019-02-15T00:31:10.169Z,61.10
2019-02-15T00:35:15.062Z,60.96
2019-02-15T00:39:19.967Z,60.83
2019-02-15T00:43:24.864Z,60.69
2019-02-15T00:47:33.860Z,60.63
2019-02-15T00:51:46.376Z,60.38
2019-02-15T00:55:52.919Z,60.28
2019-02-15T01:00:15.661Z,60.62
2019-02-15T01:04:24.960Z,60.69
2019-02-15T01:08:37.573Z,60.61
2019-02-15T01:12:44.103Z,60.70
2019-02-15T01:16:49.005Z,60.38
2019-02-15T01:20:53.904Z,60.53
2019-02-15T01:24:59.668Z,60.48
2019-02-15T01:29:22.679Z,60.49
2019-02-15T01:33:44.200Z,60.92
2019-02-15T01:38:02.607Z,60.92
2019-02-15T01:42:11.824Z,61.25
2019-02-15T01:46:23.844Z,61.32
2019-02-15T01:50:28.740Z,61.07
2019-02-15T01:54:34.704Z,61.04
2019-02-15T01:58:39.592Z,60.70
2019-02-15T02:02:44.577Z,60.84
2019-02-15T02:06:49.451Z,60.87
2019-02-15T02:10:54.347Z,60.58
2019-02-15T02:14:59.247Z,60.39
2019-02-15T02:19:04.137Z,60.10
2019-02-15T02:23:09.043Z,60.26
2019-02-15T02:27:13.932Z,60.33
2019-02-15T02:31:18.899Z,60.13
2019-02-15T02:35:23.797Z,60.17
2019-02-15T02:39:28.876Z,60.60
2019-02-15T02:43:33.766Z,60.48
2019-02-15T02:47:38.653Z,60.58
2019-02-15T02:51:43.553Z,60.79
2019-02-15T02:55:48.451Z,60.55
2019-02-15T02:59:53.336Z,60.76
2019-02-15T03:03:58.235Z,60.62
2019-02-15T03:08:03.192Z,61.01
2019-02-15T03:12:08.080Z,61.23
2019-02-15T03:16:12.972Z,61.73
2019-02-15T03:20:17.887Z,62.12
2019-02-15T03:24:22.763Z,62.48
2019-02-15T03:28:28.827Z,62.22
2019-02-15T03:32:33.732Z,61.99
2019-02-15T03:36:40.250Z,61.29
2019-02-15T03:40:45.222Z,61.76
2019-02-15T03:44:51.162Z,61.78
2019-02-15T03:48:56.052Z,61.46
2019-02-15T03:53:00.936Z,61.14
2019-02-15T03:57:05.823Z,60.80
2019-02-15T04:01:10.702Z,60.49
2019-02-15T04:05:16.558Z,60.48
2019-02-15T04:09:21.449Z,60.52
2019-02-15T04:13:26.343Z,60.50
2019-02-15T04:17:32.222Z,61.12
2019-02-15T04:21:37.108Z,61.53
2019-02-15T04:25:42.000Z,61.35
2019-02-15T04:29:46.899Z,61.38
2019-02-15T04:33:51.792Z,61.77
2019-02-15T04:37:56.684Z,61.89
2019-02-15T04:42:01.651Z,61.87
2019-02-15T04:46:06.468Z,61.91
2019-02-15T04:50:11.380Z,61.66
2019-02-15T04:54:16.271Z,61.76
2019-02-15T04:58:21.179Z,61.86
2019-02-15T05:02:26.085Z,61.64
2019-02-15T05:06:30.975Z,61.67
2019-02-15T05:10:35.877Z,61.47
2019-02-15T05:14:40.777Z,61.47
2019-02-15T05:18:45.668Z,61.29
2019-02-15T05:22:50.567Z,60.99
2019-02-15T05:26:55.469Z,61.46
2019-02-15T05:31:00.381Z,61.30
2019-02-15T05:35:05.827Z,61.21
2019-02-15T05:39:10.723Z,61.11
2019-02-15T05:43:15.629Z,61.23
2019-02-15T05:47:20.511Z,60.85
2019-02-15T05:51:25.419Z,61.20
2019-02-15T05:55:30.326Z,61.41
2019-02-15T05:59:35.226Z,61.46
2019-02-15T06:03:40.111Z,61.43
2019-02-15T06:07:45.022Z,61.79
2019-02-15T06:11:49.914Z,62.25
2019-02-15T06:15:54.823Z,62.68
2019-02-15T06:19:59.702Z,62.52
2019-02-15T06:24:04.612Z,62.68
2019-02-15T06:28:10.496Z,62.67
2019-02-15T06:32:15.555Z,62.53
2019-02-15T06:36:20.458Z,62.48
2019-02-15T06:40:25.361Z,62.46
2019-02-15T06:44:30.331Z,62.95
2019-02-15T06:48:35.230Z,63.06
2019-02-15T06:52:40.129Z,62.91
2019-02-15T06:56:45.020Z,62.87
2019-02-15T07:05:19.055Z,62.92
2019-02-15T07:09:23.947Z,62.79
2019-02-15T07:13:28.843Z,63.00
2019-02-15T07:17:33.741Z,62.77
2019-02-15T07:21:38.637Z,62.45
2019-02-15T07:25:43.535Z,62.51
2019-02-15T07:29:48.418Z,62.91
2019-02-15T07:33:53.326Z,62.43
2019-02-15T07:37:58.199Z,62.84
2019-02-15T07:42:03.097Z,62.79
2019-02-15T07:46:07.997Z,62.58
2019-02-15T07:50:14.116Z,63.04
2019-02-15T07:54:19.008Z,63.32
2019-02-15T07:58:23.915Z,63.03
2019-02-15T08:02:28.801Z,62.72
2019-02-15T08:06:33.703Z,62.91
2019-02-15T08:10:39.487Z,63.14
2019-02-15T08:14:44.469Z,63.01
2019-02-15T08:18:49.356Z,62.86
2019-02-15T08:22:54.257Z,62.91
2019-02-15T08:26:59.144Z,62.74
2019-02-15T08:31:04.034Z,62.41
2019-02-15T08:35:10.920Z,62.21
2019-02-15T08:39:17.189Z,62.18
2019-02-15T08:43:22.073Z,62.06
2019-02-15T08:47:26.955Z,61.63
2019-02-15T08:51:32.974Z,59.41
2019-02-15T08:55:37.926Z,57.82
2019-02-15T08:59:42.828Z,56.48
2019-02-15T09:03:47.724Z,55.24
2019-02-15T09:07:52.627Z,54.63
2019-02-15T09:11:57.519Z,53.37
2019-02-15T09:16:10.027Z,52.66
2019-02-15T09:20:11.142Z,51.92
2019-02-15T09:24:17.004Z,51.07
2019-02-15T09:28:35.717Z,50.51
2019-02-15T09:32:40.598Z,49.89
2019-02-15T09:36:45.506Z,49.77
2019-02-15T09:40:50.398Z,48.92
2019-02-15T09:44:55.299Z,48.36
2019-02-15T09:49:00.189Z,47.38
2019-02-15T09:53:05.066Z,47.23
2019-02-15T09:57:09.968Z,46.06
2019-02-15T10:01:14.864Z,46.16
2019-02-15T10:05:20.742Z,45.62
2019-02-15T10:09:25.641Z,45.03
2019-02-15T10:13:30.526Z,44.75
2019-02-15T10:17:35.424Z,43.86
2019-02-15T10:21:40.319Z,43.31
2019-02-15T10:25:45.211Z,42.52
2019-02-15T10:29:50.115Z,41.66
2019-02-15T10:33:55.016Z,41.32
2019-02-15T10:37:59.884Z,41.31
2019-02-15T10:42:04.775Z,41.00
2019-02-15T10:46:09.668Z,40.61
2019-02-15T10:50:14.564Z,40.26
2019-02-15T10:54:19.447Z,40.03
2019-02-15T10:58:26.344Z,39.83
2019-02-15T11:02:30.943Z,39.44
2019-02-15T11:06:35.850Z,39.56
2019-02-15T11:10:40.754Z,39.30
2019-02-15T11:14:45.642Z,38.95
2019-02-15T11:18:50.536Z,39.07
2019-02-15T11:22:55.430Z,39.21
2019-02-15T11:27:00.337Z,38.51
2019-02-15T11:31:05.315Z,38.31
2019-02-15T11:35:11.950Z,38.60
2019-02-15T11:39:16.839Z,38.11
2019-02-15T11:43:21.744Z,37.98
2019-02-15T11:47:26.644Z,37.69
2019-02-15T11:51:31.526Z,37.75
2019-02-15T11:55:37.506Z,37.58
2019-02-15T11:59:42.406Z,37.62
2019-02-15T12:03:47.311Z,37.28
2019-02-15T12:07:52.206Z,37.47
2019-02-15T12:11:57.098Z,37.44
2019-02-15T12:16:01.995Z,37.20
2019-02-15T12:20:09.842Z,37.31
2019-02-15T12:24:14.748Z,37.11
2019-02-15T12:28:19.653Z,37.07
2019-02-15T12:32:24.552Z,37.12
2019-02-15T12:36:29.453Z,37.20
2019-02-15T12:40:34.373Z,37.20
2019-02-15T12:44:39.272Z,37.25
2019-02-15T12:48:44.172Z,37.78
2019-02-15T12:52:49.050Z,37.32
2019-02-15T12:56:53.961Z,37.41
2019-02-15T13:00:58.858Z,37.46
2019-02-15T13:05:04.125Z,38.02
2019-02-15T13:09:09.018Z,37.75
2019-02-15T13:13:13.903Z,37.75
2019-02-15T13:17:24.748Z,37.65
2019-02-15T13:21:25.400Z,37.40
2019-02-15T13:25:36.531Z,37.48
2019-02-15T13:29:37.980Z,37.69
2019-02-15T13:33:42.871Z,37.81
2019-02-15T13:37:47.771Z,37.56
2019-02-15T13:41:52.678Z,37.32
2019-02-15T13:45:57.581Z,37.30
2019-02-15T13:50:02.479Z,37.59
2019-02-15T13:54:07.377Z,37.25
2019-02-15T13:58:12.269Z,37.45
2019-02-15T14:02:17.169Z,37.42
2019-02-15T14:06:22.070Z,37.41
2019-02-15T14:10:26.972Z,37.41
2019-02-15T14:14:31.875Z,37.28
2019-02-15T14:18:36.762Z,37.24
2019-02-15T14:22:41.656Z,37.02
2019-02-15T14:26:46.555Z,37.04
2019-02-15T14:30:51.474Z,37.15
2019-02-15T14:34:56.354Z,37.28
2019-02-15T14:39:01.254Z,37.13
2019-02-15T14:43:07.121Z,37.06
2019-02-15T14:47:12.022Z,37.06
2019-02-15T14:51:16.928Z,37.19
2019-02-15T14:55:21.814Z,37.28
2019-02-15T14:59:26.714Z,37.26
2019-02-15T15:03:31.615Z,37.36
2019-02-15T15:07:36.548Z,37.63
2019-02-15T15:11:41.456Z,37.53
2019-02-15T15:15:46.358Z,37.57
2019-02-15T15:19:51.268Z,37.63
2019-02-15T15:23:56.160Z,37.59
2019-02-15T15:28:01.047Z,37.55
2019-02-15T15:32:05.962Z,37.49
2019-02-15T15:36:10.854Z,37.38
2019-02-15T15:40:17.196Z,37.34
2019-02-15T15:44:22.099Z,37.57
2019-02-15T15:48:27.006Z,37.57
2019-02-15T15:52:31.899Z,37.85
2019-02-15T15:56:36.794Z,38.07
2019-02-15T16:00:41.696Z,38.05
2019-02-15T16:04:46.596Z,38.13
2019-02-15T16:08:51.502Z,38.21
2019-02-15T16:12:56.405Z,38.36
2019-02-15T16:17:01.298Z,38.51
2019-02-15T16:21:06.233Z,38.81
2019-02-15T16:25:11.405Z,39.09
2019-02-15T16:29:16.316Z,39.55
2019-02-15T16:33:21.218Z,40.23
2019-02-15T16:37:26.111Z,40.90
2019-02-15T16:41:31.014Z,41.93
2019-02-15T16:45:35.921Z,43.00
2019-02-15T16:49:40.826Z,43.63
2019-02-15T16:53:45.719Z,44.49
2019-02-15T16:57:50.601Z,45.17
2019-02-15T17:01:55.493Z,45.83
2019-02-15T17:06:00.391Z,46.65
2019-02-15T17:10:08.014Z,47.06
2019-02-15T17:14:12.889Z,47.89
2019-02-15T17:18:17.771Z,48.11
2019-02-15T17:22:22.670Z,48.63
2019-02-15T17:26:27.574Z,49.06
2019-02-15T17:30:32.473Z,49.54
2019-02-15T17:34:37.356Z,49.57
2019-02-15T17:38:42.257Z,49.53
2019-02-15T17:42:47.156Z,50.06
2019-02-15T17:46:52.067Z,50.31
2019-02-15T17:50:56.967Z,50.60
2019-02-15T17:55:01.854Z,51.01
2019-02-15T17:59:06.757Z,51.44
2019-02-15T18:03:11.649Z,51.74
2019-02-15T18:07:16.538Z,52.02
2019-02-15T18:11:21.435Z,52.15
2019-02-15T18:15:26.323Z,52.48
2019-02-15T18:19:31.230Z,52.80
2019-02-15T18:23:36.137Z,53.07
2019-02-15T18:27:41.022Z,53.22
2019-02-15T18:31:45.913Z,53.24
2019-02-15T18:35:50.801Z,52.88
2019-02-15T18:39:55.704Z,52.83
2019-02-15T18:44:00.603Z,52.64
2019-02-15T18:48:05.499Z,52.43
2019-02-15T18:52:10.398Z,52.27
2019-02-15T18:56:15.289Z,52.32
2019-02-15T19:00:20.255Z,51.90
2019-02-15T19:04:25.173Z,51.64
2019-02-15T19:08:30.038Z,51.24
2019-02-15T19:12:34.945Z,50.54
2019-02-15T19:16:39.820Z,49.88
2019-02-15T19:20:44.714Z,49.60
2019-02-15T19:24:49.614Z,49.66
2019-02-15T19:28:54.510Z,48.57
2019-02-15T19:32:59.415Z,48.25
2019-02-15T19:37:04.287Z,48.02
2019-02-15T19:41:09.207Z,47.77
2019-02-15T19:45:14.107Z,47.56
2019-02-15T19:49:19.001Z,47.38
2019-02-15T19:53:23.903Z,47.19
2019-02-15T19:57:28.787Z,46.98
2019-02-15T20:01:33.750Z,46.94
2019-02-15T20:05:38.717Z,46.94
2019-02-15T20:09:43.612Z,46.99
2019-02-15T20:13:48.533Z,47.18
2019-02-15T20:17:53.419Z,47.27
2019-02-15T20:21:58.316Z,47.35
2019-02-15T20:26:03.252Z,47.52
2019-02-15T20:30:13.671Z,47.69
2019-02-15T20:34:18.568Z,47.93
2019-02-15T20:38:23.474Z,48.08
2019-02-15T20:42:28.351Z,48.10
2019-02-15T20:46:33.266Z,47.96
2019-02-15T20:50:38.159Z,48.03
2019-02-15T20:54:43.061Z,47.90
2019-02-15T20:58:48.031Z,47.96
2019-02-15T21:02:52.841Z,47.80
2019-02-15T21:06:57.751Z,47.63
2019-02-15T21:11:02.659Z,47.43
2019-02-15T21:15:10.314Z,47.10
2019-02-15T21:19:15.223Z,46.95
2019-02-15T21:23:20.121Z,46.68
2019-02-15T21:27:25.012Z,46.79
2019-02-15T21:31:29.906Z,46.82
2019-02-15T21:35:34.807Z,46.83
2019-02-15T21:39:39.705Z,46.77
2019-02-15T21:43:44.621Z,46.88
2019-02-15T21:47:49.569Z,46.89
2019-02-15T21:51:54.469Z,46.70
2019-02-15T21:55:59.373Z,46.73
2019-02-15T22:00:06.751Z,46.75
2019-02-15T22:04:13.124Z,46.78
2019-02-15T22:08:18.022Z,46.82
2019-02-15T22:12:22.921Z,46.70
2019-02-15T22:16:27.816Z,46.73
2019-02-15T22:20:32.718Z,46.78
2019-02-15T22:24:37.608Z,46.92
2019-02-15T22:28:42.509Z,47.02
2019-02-15T22:32:47.403Z,47.18
2019-02-15T22:36:52.294Z,47.31
2019-02-15T22:41:00.221Z,47.36
2019-02-15T22:45:05.660Z,47.46
2019-02-15T22:49:10.557Z,47.54
2019-02-15T22:53:15.454Z,47.51
2019-02-15T22:57:20.349Z,48.11
2019-02-15T23:01:25.435Z,47.87
2019-02-15T23:05:30.318Z,47.96
2019-02-15T23:09:35.222Z,48.11
2019-02-15T23:13:40.115Z,48.11
2019-02-15T23:17:45.011Z,48.11
2019-02-15T23:21:49.899Z,48.14
2019-02-15T23:25:54.799Z,48.29
2019-02-15T23:29:59.691Z,48.42
2019-02-15T23:34:04.596Z,48.49
2019-02-15T23:38:09.490Z,48.59
2019-02-15T23:42:14.373Z,48.58
2019-02-15T23:46:19.269Z,48.57
2019-02-15T23:50:24.163Z,48.67
2019-02-15T23:54:29.062Z,48.75
2019-02-15T23:58:33.963Z,48.83
